EZY832W EGNT-EGAA
Flight info
| Callsign | EZY832W |
|---|---|
| Flight time | N/A |
| Altitude | 22000 |
| Route | BLACA DCT BELZU |
| Aircraft | A320/M-SDE3FGHIRWY/LB1 |
Departure
| Time | 2026-04-28 20:19 |
|---|---|
| Airport | Newcastle International Airport (EGNT) |
Arrival
| Time | N/A |
|---|---|
| Airport | Belfast International Airport (EGAA) |
| Time | Latitude | Longitude | Altitude | Speed | Heading |
|---|---|---|---|---|---|
| 2026-04-28 19:38 | 55.03614 | -1.70939 | 267 ft | 0 kts | 274° |
| 2026-04-28 19:41 | 55.03614 | -1.70938 | 267 ft | 0 kts | 274° |
| 2026-04-28 20:10 | 55.03613 | -1.70912 | 267 ft | 4 kts | 274° |
| 2026-04-28 20:10 | 55.03612 | -1.70867 | 267 ft | 4 kts | 284° |
| 2026-04-28 20:10 | 55.03599 | -1.70843 | 267 ft | 4 kts | 359° |
| 2026-04-28 20:10 | 55.03579 | -1.70845 | 267 ft | 3 kts | 4° |
| 2026-04-28 20:11 | 55.03576 | -1.70845 | 267 ft | 0 kts | 4° |
| 2026-04-28 20:15 | 55.03590 | -1.70834 | 267 ft | 6 kts | 40° |
| 2026-04-28 20:15 | 55.03597 | -1.70769 | 267 ft | 6 kts | 89° |
| 2026-04-28 20:16 | 55.03593 | -1.70696 | 267 ft | 5 kts | 99° |
| 2026-04-28 20:16 | 55.03570 | -1.70648 | 267 ft | 5 kts | 155° |
| 2026-04-28 20:16 | 55.03532 | -1.70643 | 267 ft | 5 kts | 180° |
| 2026-04-28 20:16 | 55.03479 | -1.70645 | 267 ft | 7 kts | 181° |
| 2026-04-28 20:17 | 55.03468 | -1.70646 | 268 ft | 0 kts | 181° |
| 2026-04-28 20:17 | 55.03426 | -1.70647 | 268 ft | 8 kts | 181° |
| 2026-04-28 20:18 | 55.03379 | -1.70611 | 268 ft | 7 kts | 121° |
| 2026-04-28 20:18 | 55.03377 | -1.70555 | 267 ft | 7 kts | 76° |
| 2026-04-28 20:18 | 55.03389 | -1.70510 | 267 ft | 0 kts | 64° |
| 2026-04-28 20:18 | 55.03443 | -1.70304 | 265 ft | 56 kts | 66° |
| 2026-04-28 20:19 | 55.03714 | -1.69287 | 255 ft | 125 kts | 65° |
| 2026-04-28 20:19 | 55.03992 | -1.68256 | 378 ft | 148 kts | 64° |
| 2026-04-28 20:19 | 55.04446 | -1.66667 | 1112 ft | 144 kts | 60° |
| 2026-04-28 20:19 | 55.04962 | -1.65201 | 1860 ft | 141 kts | 56° |
| 2026-04-28 20:20 | 55.05919 | -1.63840 | 2888 ft | 133 kts | 20° |
| 2026-04-28 20:20 | 55.06864 | -1.63739 | 3399 ft | 147 kts | 350° |
| 2026-04-28 20:20 | 55.07543 | -1.64237 | 3593 ft | 169 kts | 329° |
| 2026-04-28 20:20 | 55.08405 | -1.65832 | 3942 ft | 195 kts | 302° |
| 2026-04-28 20:21 | 55.08891 | -1.68238 | 4108 ft | 229 kts | 282° |
| 2026-04-28 20:21 | 55.09014 | -1.71220 | 4382 ft | 261 kts | 265° |
| 2026-04-28 20:21 | 55.08741 | -1.74426 | 5025 ft | 277 kts | 259° |
| 2026-04-28 20:21 | 55.08357 | -1.77770 | 5912 ft | 284 kts | 259° |
| 2026-04-28 20:22 | 55.07999 | -1.81189 | 6848 ft | 289 kts | 261° |
| 2026-04-28 20:22 | 55.07700 | -1.84678 | 7725 ft | 293 kts | 263° |
| 2026-04-28 20:22 | 55.07457 | -1.88236 | 8614 ft | 297 kts | 265° |
| 2026-04-28 20:22 | 55.07254 | -1.91853 | 9503 ft | 302 kts | 266° |
| 2026-04-28 20:23 | 55.07076 | -1.95538 | 10396 ft | 307 kts | 266° |
| 2026-04-28 20:23 | 55.06907 | -1.99331 | 10893 ft | 325 kts | 267° |
| 2026-04-28 20:23 | 55.06731 | -2.03414 | 11171 ft | 349 kts | 267° |
| 2026-04-28 20:23 | 55.06543 | -2.07721 | 11679 ft | 362 kts | 267° |
| 2026-04-28 20:24 | 55.06344 | -2.12138 | 12372 ft | 368 kts | 266° |
| 2026-04-28 20:24 | 55.06134 | -2.16629 | 13084 ft | 375 kts | 266° |
| 2026-04-28 20:24 | 55.05918 | -2.21203 | 13789 ft | 381 kts | 266° |
| 2026-04-28 20:24 | 55.05698 | -2.25842 | 14456 ft | 387 kts | 266° |
| 2026-04-28 20:25 | 55.05474 | -2.30549 | 15077 ft | 392 kts | 266° |
| 2026-04-28 20:25 | 55.05245 | -2.35310 | 15741 ft | 396 kts | 266° |
| 2026-04-28 20:25 | 55.05013 | -2.40050 | 16400 ft | 400 kts | 266° |
| 2026-04-28 20:25 | 55.04773 | -2.44896 | 17058 ft | 403 kts | 266° |
| 2026-04-28 20:26 | 55.04530 | -2.49794 | 17708 ft | 407 kts | 266° |
| 2026-04-28 20:26 | 55.04283 | -2.54730 | 18357 ft | 411 kts | 267° |
| 2026-04-28 20:26 | 55.04032 | -2.59720 | 18958 ft | 415 kts | 267° |
| 2026-04-28 20:26 | 55.03776 | -2.64753 | 19506 ft | 418 kts | 266° |
| 2026-04-28 20:27 | 55.03515 | -2.69822 | 20046 ft | 422 kts | 266° |
| 2026-04-28 20:27 | 55.03252 | -2.74938 | 20567 ft | 425 kts | 267° |
| 2026-04-28 20:27 | 55.02983 | -2.80100 | 21085 ft | 429 kts | 266° |
| 2026-04-28 20:27 | 55.02708 | -2.85322 | 21641 ft | 433 kts | 266° |
| 2026-04-28 20:28 | 55.02430 | -2.90564 | 22169 ft | 436 kts | 266° |